createdAt,value
2022-10-08T00:01:32.470Z,12.40
2022-10-08T00:04:03.397Z,12.40
2022-10-08T00:06:32.892Z,12.40
2022-10-08T00:09:03.370Z,12.50
2022-10-08T00:11:33.195Z,12.40
2022-10-08T00:14:02.064Z,12.40
2022-10-08T00:16:35.305Z,12.50
2022-10-08T00:19:09.077Z,12.40
2022-10-08T00:21:39.482Z,12.40
2022-10-08T00:24:09.492Z,12.40
2022-10-08T00:26:43.377Z,12.40
2022-10-08T00:29:14.025Z,12.40
2022-10-08T00:31:44.040Z,12.40
2022-10-08T00:34:15.990Z,12.40
2022-10-08T00:36:44.130Z,12.40
2022-10-08T00:39:14.968Z,12.30
2022-10-08T00:41:44.927Z,12.30
2022-10-08T00:44:54.140Z,12.30
2022-10-08T00:47:31.329Z,12.40
2022-10-08T00:50:06.228Z,12.40
2022-10-08T00:52:36.127Z,12.40
2022-10-08T00:55:06.620Z,12.40
2022-10-08T00:57:36.332Z,12.40
2022-10-08T01:00:06.966Z,12.40
2022-10-08T01:02:35.166Z,12.40
2022-10-08T01:05:06.432Z,12.40
2022-10-08T01:07:43.710Z,12.40
2022-10-08T01:10:19.457Z,12.40
2022-10-08T01:12:56.943Z,12.30
2022-10-08T01:15:32.365Z,12.30
2022-10-08T01:18:10.539Z,12.20
2022-10-08T01:20:53.657Z,12.10
2022-10-08T01:23:50.684Z,12.10
2022-10-08T01:26:36.462Z,12.10
2022-10-08T01:29:14.682Z,11.90
2022-10-08T01:31:47.254Z,11.80
2022-10-08T01:34:21.741Z,11.70
2022-10-08T01:36:52.473Z,11.70
2022-10-08T01:39:23.131Z,11.60
2022-10-08T01:41:56.335Z,11.60
2022-10-08T01:44:32.815Z,11.40
2022-10-08T01:47:05.277Z,11.40
2022-10-08T01:49:38.733Z,11.50
2022-10-08T01:52:11.498Z,11.40
2022-10-08T01:54:43.207Z,11.40
2022-10-08T01:57:12.829Z,11.30
2022-10-08T01:59:46.588Z,11.30
2022-10-08T02:02:18.631Z,11.20
2022-10-08T02:04:49.233Z,11.20
2022-10-08T02:07:19.613Z,11.30
2022-10-08T02:09:51.420Z,11.20
2022-10-08T02:12:20.211Z,11.10
2022-10-08T02:14:52.084Z,11.00
2022-10-08T02:17:26.917Z,10.90
2022-10-08T02:19:58.707Z,10.90
2022-10-08T02:22:32.352Z,11.00
2022-10-08T02:25:06.529Z,10.90
2022-10-08T02:27:44.140Z,10.80
2022-10-08T02:30:14.997Z,10.70
2022-10-08T02:32:51.079Z,10.60
2022-10-08T02:35:26.968Z,10.60
2022-10-08T02:38:01.074Z,10.50
2022-10-08T02:40:31.661Z,10.50
2022-10-08T02:43:04.695Z,10.50
2022-10-08T02:45:40.648Z,10.40
2022-10-08T02:48:13.059Z,10.50
2022-10-08T02:50:44.603Z,10.40
2022-10-08T02:53:14.607Z,10.40
2022-10-08T02:55:50.295Z,10.40
2022-10-08T02:58:18.835Z,10.30
2022-10-08T03:00:54.518Z,10.30
2022-10-08T03:03:29.849Z,10.40
2022-10-08T03:05:58.933Z,10.40
2022-10-08T03:08:27.773Z,10.40
2022-10-08T03:10:56.008Z,10.40
2022-10-08T03:13:25.581Z,10.30
2022-10-08T03:15:56.165Z,10.30
2022-10-08T03:18:25.415Z,10.20
2022-10-08T03:20:55.961Z,10.20
2022-10-08T03:23:25.757Z,10.10
2022-10-08T03:25:53.822Z,10.00
2022-10-08T03:28:21.951Z,10.00
2022-10-08T03:30:50.071Z,10.00
2022-10-08T03:33:19.538Z,10.10
2022-10-08T03:35:48.243Z,10.00
2022-10-08T03:38:16.968Z,10.00
2022-10-08T03:40:53.991Z,9.90
2022-10-08T03:43:22.114Z,9.90
2022-10-08T03:45:52.491Z,9.90
2022-10-08T03:48:23.440Z,9.90
2022-10-08T03:50:53.655Z,9.80
2022-10-08T03:53:22.496Z,9.80
2022-10-08T03:55:51.075Z,9.80
2022-10-08T03:58:19.971Z,9.70
2022-10-08T04:00:57.916Z,9.70
2022-10-08T04:03:28.096Z,9.70
2022-10-08T04:05:56.389Z,9.70
2022-10-08T04:08:24.820Z,9.60
2022-10-08T04:10:52.939Z,9.60
2022-10-08T04:13:21.283Z,9.60
2022-10-08T04:15:50.823Z,9.60
2022-10-08T04:18:19.457Z,9.50
2022-10-08T04:20:48.906Z,9.60
2022-10-08T04:23:17.721Z,9.60
2022-10-08T04:25:50.963Z,9.70
2022-10-08T04:28:19.174Z,9.70
2022-10-08T04:30:56.588Z,9.70
2022-10-08T04:33:25.002Z,9.70
2022-10-08T04:35:59.879Z,9.70
2022-10-08T04:38:28.700Z,9.70
2022-10-08T04:41:04.299Z,9.70
2022-10-08T04:43:32.386Z,9.70
2022-10-08T04:46:00.519Z,9.60
2022-10-08T04:48:28.704Z,9.50
2022-10-08T04:50:59.111Z,9.50
2022-10-08T04:53:27.470Z,9.40
2022-10-08T04:55:56.638Z,9.40
2022-10-08T04:58:26.819Z,9.30
2022-10-08T05:00:54.892Z,9.30
2022-10-08T05:03:22.936Z,9.30
2022-10-08T05:05:51.014Z,9.20
2022-10-08T05:08:20.447Z,9.20
2022-10-08T05:10:51.543Z,9.20
2022-10-08T05:13:19.611Z,9.20
2022-10-08T05:15:48.697Z,9.20
2022-10-08T05:18:17.219Z,9.30
2022-10-08T05:20:45.280Z,9.30
2022-10-08T05:23:13.329Z,9.40
2022-10-08T05:25:42.917Z,9.40
2022-10-08T05:28:11.045Z,9.40
2022-10-08T05:30:39.133Z,9.40
2022-10-08T05:33:07.210Z,9.40
2022-10-08T05:35:38.592Z,9.40
2022-10-08T05:38:06.623Z,9.40
2022-10-08T05:40:34.674Z,9.50
2022-10-08T05:43:04.084Z,9.50
2022-10-08T05:45:32.166Z,9.50
2022-10-08T05:48:00.256Z,9.50
2022-10-08T05:50:28.326Z,9.60
2022-10-08T05:52:56.403Z,9.60
2022-10-08T05:55:24.488Z,9.60
2022-10-08T05:57:52.576Z,9.60
2022-10-08T06:00:22.063Z,9.70
2022-10-08T06:02:51.092Z,9.70
2022-10-08T06:05:19.342Z,9.70
2022-10-08T06:07:47.378Z,9.80
2022-10-08T06:10:15.558Z,9.80
2022-10-08T06:12:43.627Z,9.80
2022-10-08T06:15:11.979Z,9.90
2022-10-08T06:17:41.481Z,10.00
2022-10-08T06:20:10.340Z,9.90
2022-10-08T06:22:38.362Z,9.90
2022-10-08T06:25:07.436Z,9.90
2022-10-08T06:27:35.473Z,10.00
2022-10-08T06:30:03.675Z,10.10
2022-10-08T06:32:31.760Z,10.10
2022-10-08T06:35:01.200Z,10.20
2022-10-08T06:37:29.217Z,10.30
2022-10-08T06:39:57.284Z,10.30
2022-10-08T06:42:25.385Z,10.40
2022-10-08T06:44:53.453Z,10.50
2022-10-08T06:47:21.502Z,10.60
2022-10-08T06:49:49.652Z,10.60
2022-10-08T06:52:19.098Z,10.70
2022-10-08T06:54:47.159Z,10.70
2022-10-08T06:57:15.247Z,10.80
2022-10-08T06:59:43.317Z,10.90
2022-10-08T07:02:12.275Z,11.10
2022-10-08T07:04:40.338Z,11.20
2022-10-08T07:07:08.406Z,11.30
2022-10-08T07:09:37.877Z,11.40
2022-10-08T07:12:05.997Z,11.50
2022-10-08T07:14:34.046Z,11.80
2022-10-08T07:17:02.202Z,11.80
2022-10-08T07:19:30.247Z,11.80
2022-10-08T07:22:01.269Z,11.70
2022-10-08T07:24:29.737Z,11.80
2022-10-08T07:26:59.269Z,11.80
2022-10-08T07:29:27.790Z,11.70
2022-10-08T07:31:55.945Z,11.80
2022-10-08T07:34:24.215Z,11.90
2022-10-08T07:36:52.324Z,12.00
2022-10-08T07:39:21.398Z,12.10
2022-10-08T07:41:50.355Z,12.10
2022-10-08T07:44:19.802Z,12.20
2022-10-08T07:46:49.480Z,12.10
2022-10-08T07:49:18.393Z,12.10
2022-10-08T07:51:46.794Z,12.00
2022-10-08T07:54:17.078Z,11.90
2022-10-08T07:56:45.557Z,11.90
2022-10-08T07:59:15.914Z,11.90
2022-10-08T08:01:45.553Z,11.80
2022-10-08T08:04:14.672Z,11.80
2022-10-08T08:06:44.267Z,11.90
2022-10-08T08:09:14.364Z,11.90
2022-10-08T08:11:42.548Z,12.00
2022-10-08T08:14:10.727Z,12.00
2022-10-08T08:16:40.427Z,12.20
2022-10-08T08:19:09.919Z,12.20
2022-10-08T08:21:39.620Z,12.30
2022-10-08T08:24:10.744Z,12.60
2022-10-08T08:26:40.201Z,12.70
2022-10-08T08:29:10.174Z,13.00
2022-10-08T08:31:40.933Z,13.10
2022-10-08T08:34:12.544Z,13.50
2022-10-08T08:36:42.480Z,13.70
2022-10-08T08:39:17.333Z,13.70
2022-10-08T08:42:09.881Z,13.40
2022-10-08T08:44:41.015Z,13.00
2022-10-08T08:47:14.805Z,12.90
2022-10-08T08:49:47.265Z,12.80
2022-10-08T08:52:18.353Z,12.60
2022-10-08T08:54:49.272Z,12.60
2022-10-08T08:57:32.170Z,12.40
2022-10-08T09:00:04.871Z,12.30
2022-10-08T09:02:36.804Z,12.40
2022-10-08T09:05:12.199Z,12.40
2022-10-08T09:07:46.833Z,12.40
2022-10-08T09:10:21.597Z,12.50
2022-10-08T09:12:53.637Z,12.60
2022-10-08T09:15:26.766Z,12.70
2022-10-08T09:17:55.130Z,12.70
2022-10-08T09:20:26.443Z,12.80
2022-10-08T09:22:55.805Z,12.80
2022-10-08T09:25:25.955Z,12.80
2022-10-08T09:27:56.570Z,12.80
2022-10-08T09:30:37.346Z,12.80
2022-10-08T09:33:21.612Z,12.90
2022-10-08T09:35:52.490Z,12.90
2022-10-08T09:38:26.289Z,13.10
2022-10-08T09:41:02.601Z,13.30
2022-10-08T09:43:32.038Z,13.40
2022-10-08T09:46:00.193Z,13.50
2022-10-08T09:48:29.633Z,13.40
2022-10-08T09:51:02.559Z,13.60
2022-10-08T09:53:35.891Z,13.60
2022-10-08T09:56:06.255Z,13.70
2022-10-08T09:58:52.582Z,13.70
2022-10-08T10:01:21.243Z,13.80
2022-10-08T10:03:51.456Z,13.90
2022-10-08T10:06:29.597Z,14.00
2022-10-08T10:09:02.566Z,13.90
2022-10-08T10:11:37.323Z,14.00
2022-10-08T10:14:15.875Z,14.00
2022-10-08T10:16:46.154Z,14.10
2022-10-08T10:19:19.588Z,14.10
2022-10-08T10:21:55.987Z,14.10
2022-10-08T10:24:41.165Z,14.00
2022-10-08T10:27:13.280Z,14.00
2022-10-08T10:29:56.135Z,14.00
2022-10-08T10:32:32.173Z,14.00
2022-10-08T10:35:07.230Z,14.20
2022-10-08T10:37:44.864Z,14.10
2022-10-08T10:40:30.730Z,14.30
2022-10-08T10:43:13.663Z,14.50
2022-10-08T10:45:45.420Z,14.60
2022-10-08T10:48:15.634Z,14.60
2022-10-08T10:50:51.720Z,14.70
2022-10-08T10:53:33.532Z,14.90
2022-10-08T10:56:11.031Z,15.00
2022-10-08T10:58:52.678Z,15.20
2022-10-08T11:01:32.302Z,14.90
2022-10-08T11:04:09.358Z,15.30
2022-10-08T11:07:02.554Z,15.40
2022-10-08T11:09:50.013Z,15.70
2022-10-08T11:12:29.351Z,15.60
2022-10-08T11:15:06.448Z,15.60
2022-10-08T11:17:54.888Z,15.70
2022-10-08T11:20:45.074Z,15.80
2022-10-08T11:23:29.621Z,16.10
2022-10-08T11:28:58.466Z,16.30
2022-10-08T11:31:37.910Z,16.20
2022-10-08T11:34:06.819Z,16.20
2022-10-08T11:36:42.306Z,16.10
2022-10-08T11:39:18.193Z,15.80
2022-10-08T11:41:54.213Z,16.10
2022-10-08T11:44:22.854Z,16.10
2022-10-08T11:46:51.097Z,15.70
2022-10-08T11:49:45.327Z,15.40
2022-10-08T11:52:17.042Z,15.50
2022-10-08T11:54:55.413Z,15.40
2022-10-08T11:57:49.353Z,15.40
2022-10-08T12:00:35.812Z,15.10
2022-10-08T12:03:06.076Z,15.80
2022-10-08T12:05:41.544Z,15.90
2022-10-08T12:08:09.972Z,16.30
2022-10-08T12:10:39.923Z,16.70
2022-10-08T12:13:29.128Z,17.00
2022-10-08T12:16:05.063Z,16.90
2022-10-08T12:18:51.962Z,16.50
2022-10-08T12:21:53.048Z,15.90
2022-10-08T12:24:56.670Z,15.50
2022-10-08T12:27:27.134Z,15.20
2022-10-08T12:29:58.401Z,14.90
2022-10-08T12:32:27.957Z,15.10
2022-10-08T12:34:56.736Z,15.30
2022-10-08T12:37:49.311Z,15.80
2022-10-08T12:40:31.561Z,16.00
2022-10-08T12:43:12.603Z,16.50
2022-10-08T12:45:51.210Z,16.70
2022-10-08T12:48:31.343Z,16.80
2022-10-08T12:51:11.553Z,16.70
2022-10-08T12:53:44.992Z,17.00
2022-10-08T12:56:17.412Z,17.00
2022-10-08T12:58:47.963Z,17.50
2022-10-08T13:01:20.251Z,18.20
2022-10-08T13:03:48.626Z,18.60
2022-10-08T13:06:29.330Z,18.50
2022-10-08T13:08:59.725Z,18.70
2022-10-08T13:11:28.649Z,19.20
2022-10-08T13:14:00.502Z,19.40
2022-10-08T13:16:47.016Z,19.20
2022-10-08T13:19:19.231Z,18.90
2022-10-08T13:21:56.300Z,18.60
2022-10-08T13:24:41.369Z,18.20
2022-10-08T13:27:24.036Z,18.20
2022-10-08T13:29:52.494Z,17.70
2022-10-08T13:32:24.231Z,17.10
2022-10-08T13:34:54.560Z,16.40
2022-10-08T13:37:32.673Z,16.10
2022-10-08T13:40:02.690Z,16.00
2022-10-08T13:42:34.036Z,15.90
2022-10-08T13:45:04.200Z,15.80
2022-10-08T13:47:33.627Z,15.40
2022-10-08T13:50:02.215Z,15.30
2022-10-08T13:52:32.455Z,15.20
2022-10-08T13:55:03.339Z,15.40
2022-10-08T13:57:31.467Z,15.50
2022-10-08T13:59:59.723Z,15.50
2022-10-08T14:02:27.857Z,15.60
2022-10-08T14:04:57.333Z,16.10
2022-10-08T14:07:28.794Z,16.60
2022-10-08T14:09:58.428Z,17.60
2022-10-08T14:12:30.043Z,18.00
2022-10-08T14:14:58.155Z,18.80
2022-10-08T14:17:26.985Z,19.20
2022-10-08T14:19:55.552Z,18.20
2022-10-08T14:22:25.163Z,17.60
2022-10-08T14:24:53.794Z,17.30
2022-10-08T14:27:21.880Z,17.60
2022-10-08T14:29:49.932Z,18.10
2022-10-08T14:32:17.989Z,17.90
2022-10-08T14:34:46.100Z,17.70
2022-10-08T14:37:14.192Z,17.40
2022-10-08T14:39:43.717Z,17.00
2022-10-08T14:42:11.770Z,17.30
2022-10-08T14:44:39.806Z,17.80
2022-10-08T14:47:07.856Z,18.30
2022-10-08T14:49:35.902Z,18.60
2022-10-08T14:52:04.008Z,18.70
2022-10-08T14:54:32.103Z,19.00
2022-10-08T14:57:01.540Z,19.70
2022-10-08T14:59:29.609Z,19.40
2022-10-08T15:01:57.769Z,19.60
2022-10-08T15:04:25.855Z,20.00
2022-10-08T15:06:53.956Z,20.30
2022-10-08T15:09:22.152Z,20.20
2022-10-08T15:11:50.326Z,20.30
2022-10-08T15:14:19.771Z,20.20
2022-10-08T15:16:47.874Z,20.40
2022-10-08T15:19:18.696Z,20.30
2022-10-08T15:21:50.806Z,20.10
2022-10-08T15:24:19.150Z,19.90
2022-10-08T15:26:47.265Z,19.90
2022-10-08T15:29:15.351Z,20.10
2022-10-08T15:31:44.956Z,20.50
2022-10-08T15:34:20.409Z,20.40
2022-10-08T15:36:48.870Z,20.50
2022-10-08T15:39:18.695Z,20.70
2022-10-08T15:41:48.655Z,20.80
2022-10-08T15:44:19.540Z,20.90
2022-10-08T15:46:50.554Z,21.50
2022-10-08T15:49:18.634Z,21.80
2022-10-08T15:51:46.722Z,20.90
2022-10-08T15:54:14.900Z,19.90
2022-10-08T15:56:42.992Z,19.90
2022-10-08T15:59:11.037Z,20.00
2022-10-08T16:01:39.207Z,20.10
2022-10-08T16:04:11.748Z,19.80
2022-10-08T16:06:45.063Z,19.40
2022-10-08T16:09:13.678Z,18.90
2022-10-08T16:11:42.053Z,19.00
2022-10-08T16:14:12.962Z,19.30
2022-10-08T16:16:41.387Z,19.70
2022-10-08T16:19:13.531Z,19.60
2022-10-08T16:21:41.707Z,19.90
2022-10-08T16:24:10.324Z,19.90
2022-10-08T16:26:39.961Z,19.90
2022-10-08T16:29:10.928Z,19.90
2022-10-08T16:31:40.150Z,19.50
2022-10-08T16:34:12.968Z,19.00
2022-10-08T16:36:41.712Z,18.40
2022-10-08T16:39:12.032Z,17.90
2022-10-08T16:41:40.312Z,17.50
2022-10-08T16:44:12.654Z,17.20
2022-10-08T16:46:42.878Z,16.90
2022-10-08T16:49:23.058Z,16.60
2022-10-08T16:51:53.410Z,16.40
2022-10-08T16:54:21.554Z,16.10
2022-10-08T16:56:49.668Z,15.90
2022-10-08T16:59:20.141Z,15.70
2022-10-08T17:01:50.809Z,15.50
2022-10-08T17:04:23.608Z,15.40
2022-10-08T17:06:51.963Z,15.20
2022-10-08T17:09:20.417Z,15.00
2022-10-08T17:11:48.563Z,14.90
2022-10-08T17:14:16.938Z,14.80
2022-10-08T17:16:45.855Z,14.60
2022-10-08T17:19:14.645Z,14.50
2022-10-08T17:21:44.135Z,14.40
2022-10-08T17:24:13.221Z,14.30
2022-10-08T17:26:41.889Z,14.30
2022-10-08T17:29:12.859Z,14.20
2022-10-08T17:31:41.137Z,14.00
2022-10-08T17:34:10.027Z,14.10
2022-10-08T17:36:39.899Z,14.00
2022-10-08T17:39:12.609Z,13.90
2022-10-08T17:41:41.903Z,13.90
2022-10-08T17:44:11.228Z,13.90
2022-10-08T17:46:42.752Z,13.70
2022-10-08T17:49:10.923Z,13.60
2022-10-08T17:51:39.812Z,13.60
2022-10-08T17:54:12.528Z,13.60
2022-10-08T17:56:40.881Z,13.50
2022-10-08T17:59:09.069Z,13.40
2022-10-08T18:01:41.441Z,13.30
2022-10-08T18:04:13.948Z,13.30
2022-10-08T18:06:43.236Z,13.20
2022-10-08T18:09:15.190Z,13.20
2022-10-08T18:11:48.187Z,13.10
2022-10-08T18:14:17.449Z,13.10
2022-10-08T18:16:48.476Z,13.00
2022-10-08T18:19:17.612Z,13.00
2022-10-08T18:21:45.853Z,12.90
2022-10-08T18:24:18.283Z,12.90
2022-10-08T18:26:46.850Z,12.90
2022-10-08T18:29:16.131Z,12.90
2022-10-08T18:31:46.500Z,12.80
2022-10-08T18:34:16.580Z,12.80
2022-10-08T18:36:45.656Z,12.70
2022-10-08T18:39:16.631Z,12.70
2022-10-08T18:41:46.831Z,12.60
2022-10-08T18:44:17.987Z,12.60
2022-10-08T18:46:46.222Z,12.50
2022-10-08T18:49:15.808Z,12.50
2022-10-08T18:51:43.979Z,12.40
2022-10-08T18:54:13.019Z,12.40
2022-10-08T18:56:42.637Z,12.30
2022-10-08T18:59:14.772Z,12.20
2022-10-08T19:01:44.490Z,12.10
2022-10-08T19:04:15.282Z,12.10
2022-10-08T19:06:45.430Z,12.00
2022-10-08T19:09:14.279Z,12.00
2022-10-08T19:11:46.078Z,12.00
2022-10-08T19:14:16.112Z,12.00
2022-10-08T19:16:45.115Z,11.90
2022-10-08T19:19:16.657Z,11.90
2022-10-08T19:21:45.501Z,11.90
2022-10-08T19:24:16.248Z,11.90
2022-10-08T19:26:46.811Z,11.90
2022-10-08T19:29:16.307Z,11.80
2022-10-08T19:31:47.425Z,11.90
2022-10-08T19:34:17.050Z,11.90
2022-10-08T19:36:45.738Z,12.00
2022-10-08T19:39:15.420Z,12.00
2022-10-08T19:41:45.598Z,12.00
2022-10-08T19:44:14.424Z,12.00
2022-10-08T19:46:42.545Z,12.00
2022-10-08T19:49:11.276Z,12.00
2022-10-08T19:51:39.669Z,12.10
2022-10-08T19:54:07.934Z,12.10
2022-10-08T19:56:36.813Z,12.20
2022-10-08T19:59:06.707Z,12.30
2022-10-08T20:01:36.620Z,12.30
2022-10-08T20:04:06.470Z,12.20
2022-10-08T20:06:38.746Z,12.30
2022-10-08T20:09:08.087Z,12.30
2022-10-08T20:11:36.172Z,12.20
2022-10-08T20:14:06.035Z,12.00
2022-10-08T20:16:36.580Z,11.80
2022-10-08T20:19:07.323Z,11.70
2022-10-08T20:21:37.923Z,11.60
2022-10-08T20:24:07.092Z,11.60
2022-10-08T20:26:36.168Z,11.50
2022-10-08T20:29:07.728Z,11.40
2022-10-08T20:31:37.349Z,11.40
2022-10-08T20:34:07.596Z,11.50
2022-10-08T20:36:35.933Z,11.50
2022-10-08T20:39:04.040Z,11.50
2022-10-08T20:41:32.205Z,11.50
2022-10-08T20:44:02.440Z,11.40
2022-10-08T20:46:32.814Z,11.30
2022-10-08T20:49:00.948Z,11.40
2022-10-08T20:51:30.151Z,11.30
2022-10-08T20:53:59.910Z,11.20
2022-10-08T20:56:29.055Z,11.20
2022-10-08T20:58:57.373Z,11.20
2022-10-08T21:01:26.863Z,11.20
2022-10-08T21:03:57.329Z,11.10
2022-10-08T21:06:27.390Z,11.10
2022-10-08T21:08:57.053Z,11.10
2022-10-08T21:11:26.987Z,11.00
2022-10-08T21:13:55.194Z,11.00
2022-10-08T21:16:25.693Z,11.00
2022-10-08T21:18:58.188Z,11.00
2022-10-08T21:21:28.050Z,10.90
2022-10-08T21:23:56.705Z,10.90
2022-10-08T21:26:26.860Z,10.90
2022-10-08T21:28:57.535Z,10.90
2022-10-08T21:31:26.747Z,10.90
2022-10-08T21:33:55.575Z,10.90
2022-10-08T21:36:27.183Z,10.90
2022-10-08T21:38:55.493Z,10.80
2022-10-08T21:41:25.136Z,10.90
2022-10-08T21:43:56.006Z,11.00
2022-10-08T21:46:26.283Z,11.20
2022-10-08T21:48:56.023Z,11.20
2022-10-08T21:51:26.278Z,11.20
2022-10-08T21:53:56.042Z,11.20
2022-10-08T21:56:25.441Z,11.10
2022-10-08T21:58:55.090Z,11.10
2022-10-08T22:01:28.854Z,11.10
2022-10-08T22:03:58.693Z,11.00
2022-10-08T22:06:29.573Z,11.00
2022-10-08T22:08:58.442Z,11.00
2022-10-08T22:11:26.906Z,11.00
2022-10-08T22:13:55.042Z,10.90
2022-10-08T22:16:23.899Z,10.90
2022-10-08T22:18:52.120Z,11.00
2022-10-08T22:21:21.907Z,11.00
2022-10-08T22:23:52.125Z,11.00
2022-10-08T22:26:21.927Z,10.90
2022-10-08T22:28:50.495Z,11.00
2022-10-08T22:31:20.012Z,10.90
2022-10-08T22:33:49.355Z,10.90
2022-10-08T22:36:19.715Z,10.80
2022-10-08T22:38:48.592Z,10.80
2022-10-08T22:41:19.851Z,10.80
2022-10-08T22:43:48.371Z,10.70
2022-10-08T22:46:18.962Z,10.70
2022-10-08T22:48:47.452Z,10.60
2022-10-08T22:51:20.239Z,10.40
2022-10-08T22:53:48.867Z,10.20
2022-10-08T22:56:20.684Z,10.10
2022-10-08T22:58:49.488Z,9.90
2022-10-08T23:01:19.598Z,9.80
2022-10-08T23:03:48.264Z,9.60
2022-10-08T23:06:18.564Z,9.50
2022-10-08T23:08:47.789Z,9.40
2022-10-08T23:11:18.003Z,9.30
2022-10-08T23:13:46.638Z,9.40
2022-10-08T23:16:16.532Z,9.40
2022-10-08T23:18:46.400Z,9.30
2022-10-08T23:21:18.550Z,9.40
2022-10-08T23:23:59.994Z,9.40
2022-10-08T23:26:33.053Z,9.30
2022-10-08T23:29:03.196Z,9.20
2022-10-08T23:31:34.056Z,9.20
2022-10-08T23:34:03.767Z,9.10
2022-10-08T23:36:35.406Z,9.10
2022-10-08T23:39:04.556Z,9.10
2022-10-08T23:41:34.575Z,9.10
2022-10-08T23:44:02.992Z,9.10
2022-10-08T23:46:33.834Z,9.10
2022-10-08T23:49:02.578Z,9.10
2022-10-08T23:51:32.883Z,9.10
2022-10-08T23:54:02.655Z,9.10
2022-10-08T23:56:32.050Z,9.00
2022-10-08T23:59:02.003Z,9.00
